sensor_id;sensor_type;location;lat;lon;timestamp;pressure;altitude;pressure_sealevel;temperature;humidity
71573;BME280;59408;51.032;9.410;2023-04-09T00:01:36;99937.81;;;4.48;100.00
71573;BME280;59408;51.032;9.410;2023-04-09T00:04:03;99945.13;;;4.47;100.00
71573;BME280;59408;51.032;9.410;2023-04-09T00:06:30;99945.41;;;4.46;100.00
71573;BME280;59408;51.032;9.410;2023-04-09T00:08:58;99949.19;;;4.45;100.00
71573;BME280;59408;51.032;9.410;2023-04-09T00:11:24;99934.88;;;4.44;100.00
71573;BME280;59408;51.032;9.410;2023-04-09T00:13:51;99944.34;;;4.42;100.00
71573;BME280;59408;51.032;9.410;2023-04-09T00:16:18;99934.34;;;4.42;100.00
71573;BME280;59408;51.032;9.410;2023-04-09T00:18:44;99941.09;;;4.40;100.00
71573;BME280;59408;51.032;9.410;2023-04-09T00:21:11;99938.41;;;4.40;100.00
71573;BME280;59408;51.032;9.410;2023-04-09T00:23:37;99935.97;;;4.38;100.00
71573;BME280;59408;51.032;9.410;2023-04-09T00:26:05;99935.16;;;4.38;100.00
71573;BME280;59408;51.032;9.410;2023-04-09T00:28:32;99939.75;;;4.37;100.00
71573;BME280;59408;51.032;9.410;2023-04-09T00:30:59;99940.06;;;4.36;100.00
71573;BME280;59408;51.032;9.410;2023-04-09T00:33:26;99937.06;;;4.37;100.00
71573;BME280;59408;51.032;9.410;2023-04-09T00:35:52;99936.28;;;4.37;100.00
71573;BME280;59408;51.032;9.410;2023-04-09T00:38:19;99924.94;;;4.35;100.00
71573;BME280;59408;51.032;9.410;2023-04-09T00:40:47;99932.50;;;4.33;100.00
71573;BME280;59408;51.032;9.410;2023-04-09T00:43:16;99929.53;;;4.29;100.00
71573;BME280;59408;51.032;9.410;2023-04-09T00:45:43;99926.81;;;4.29;100.00
71573;BME280;59408;51.032;9.410;2023-04-09T00:48:09;99931.13;;;4.30;100.00
71573;BME280;59408;51.032;9.410;2023-04-09T00:50:36;99934.09;;;4.28;100.00
71573;BME280;59408;51.032;9.410;2023-04-09T00:53:04;99935.50;;;4.26;100.00
71573;BME280;59408;51.032;9.410;2023-04-09T00:55:30;99934.69;;;4.25;100.00
71573;BME280;59408;51.032;9.410;2023-04-09T00:57:58;99930.09;;;4.26;100.00
71573;BME280;59408;51.032;9.410;2023-04-09T01:00:26;99931.97;;;4.25;100.00
71573;BME280;59408;51.032;9.410;2023-04-09T01:02:52;99933.06;;;4.24;100.00
71573;BME280;59408;51.032;9.410;2023-04-09T01:05:22;99929.00;;;4.22;100.00
71573;BME280;59408;51.032;9.410;2023-04-09T01:08:00;99933.59;;;4.21;100.00
71573;BME280;59408;51.032;9.410;2023-04-09T01:10:33;99932.53;;;4.17;100.00
71573;BME280;59408;51.032;9.410;2023-04-09T01:13:06;99928.22;;;4.16;100.00
71573;BME280;59408;51.032;9.410;2023-04-09T01:15:39;99918.50;;;4.15;100.00
71573;BME280;59408;51.032;9.410;2023-04-09T01:18:12;99917.44;;;4.11;100.00
71573;BME280;59408;51.032;9.410;2023-04-09T01:20:43;99918.50;;;4.10;100.00
71573;BME280;59408;51.032;9.410;2023-04-09T01:23:17;99921.78;;;4.07;100.00
71573;BME280;59408;51.032;9.410;2023-04-09T01:25:53;99918.81;;;4.04;100.00
71573;BME280;59408;51.032;9.410;2023-04-09T01:28:26;99908.28;;;4.02;100.00
71573;BME280;59408;51.032;9.410;2023-04-09T01:31:00;99915.84;;;4.00;100.00
71573;BME280;59408;51.032;9.410;2023-04-09T01:33:28;99917.47;;;3.96;100.00
71573;BME280;59408;51.032;9.410;2023-04-09T01:35:57;99916.38;;;3.92;100.00
71573;BME280;59408;51.032;9.410;2023-04-09T01:38:25;99915.88;;;3.90;100.00
71573;BME280;59408;51.032;9.410;2023-04-09T01:40:54;99905.63;;;3.87;100.00
71573;BME280;59408;51.032;9.410;2023-04-09T01:43:23;99909.94;;;3.83;100.00
71573;BME280;59408;51.032;9.410;2023-04-09T01:45:52;99909.41;;;3.81;100.00
71573;BME280;59408;51.032;9.410;2023-04-09T01:48:20;99907.81;;;3.80;100.00
71573;BME280;59408;51.032;9.410;2023-04-09T01:50:48;99911.56;;;3.79;100.00
71573;BME280;59408;51.032;9.410;2023-04-09T01:53:15;99909.94;;;3.78;100.00
71573;BME280;59408;51.032;9.410;2023-04-09T01:55:42;99914.28;;;3.79;100.00
71573;BME280;59408;51.032;9.410;2023-04-09T01:58:09;99912.38;;;3.79;100.00
71573;BME280;59408;51.032;9.410;2023-04-09T02:00:38;99910.22;;;3.81;100.00
71573;BME280;59408;51.032;9.410;2023-04-09T02:03:10;99912.38;;;3.79;100.00
71573;BME280;59408;51.032;9.410;2023-04-09T02:05:45;99914.28;;;3.79;100.00
71573;BME280;59408;51.032;9.410;2023-04-09T02:08:18;99917.50;;;3.76;100.00
71573;BME280;59408;51.032;9.410;2023-04-09T02:10:50;99918.84;;;3.78;100.00
71573;BME280;59408;51.032;9.410;2023-04-09T02:13:19;99919.94;;;3.77;100.00
71573;BME280;59408;51.032;9.410;2023-04-09T02:15:47;99924.25;;;3.78;100.00
71573;BME280;59408;51.032;9.410;2023-04-09T02:18:23;99922.38;;;3.79;100.00
71573;BME280;59408;51.032;9.410;2023-04-09T02:20:51;99912.66;;;3.78;100.00
71573;BME280;59408;51.032;9.410;2023-04-09T02:23:17;99919.94;;;3.77;100.00
71573;BME280;59408;51.032;9.410;2023-04-09T02:25:44;99914.81;;;3.76;100.00
71573;BME280;59408;51.032;9.410;2023-04-09T02:28:11;99917.50;;;3.76;100.00
71573;BME280;59408;51.032;9.410;2023-04-09T02:30:37;99921.28;;;3.75;100.00
71573;BME280;59408;51.032;9.410;2023-04-09T02:33:04;99915.06;;;3.74;100.00
71573;BME280;59408;51.032;9.410;2023-04-09T02:35:32;99912.69;;;3.73;100.00
71573;BME280;59408;51.032;9.410;2023-04-09T02:37:59;99903.78;;;3.72;100.00
71573;BME280;59408;51.032;9.410;2023-04-09T02:40:26;99912.69;;;3.73;100.00
71573;BME280;59408;51.032;9.410;2023-04-09T02:42:53;99904.84;;;3.71;100.00
71573;BME280;59408;51.032;9.410;2023-04-09T02:45:19;99908.34;;;3.72;100.00
71573;BME280;59408;51.032;9.410;2023-04-09T02:47:46;99905.38;;;3.73;100.00
71573;BME280;59408;51.032;9.410;2023-04-09T02:50:13;99900.50;;;3.75;100.00
71573;BME280;59408;51.032;9.410;2023-04-09T02:52:41;99895.09;;;3.75;100.00
71573;BME280;59408;51.032;9.410;2023-04-09T02:55:07;99901.59;;;3.74;100.00
71573;BME280;59408;51.032;9.410;2023-04-09T02:57:34;99900.50;;;3.75;100.00
71573;BME280;59408;51.032;9.410;2023-04-09T03:00:01;99895.91;;;3.76;100.00
71573;BME280;59408;51.032;9.410;2023-04-09T03:02:27;99905.38;;;3.78;100.00
71573;BME280;59408;51.032;9.410;2023-04-09T03:04:54;99892.69;;;3.79;100.00
71573;BME280;59408;51.032;9.410;2023-04-09T03:07:21;99895.13;;;3.80;100.00
71573;BME280;59408;51.032;9.410;2023-04-09T03:09:49;99901.84;;;3.83;100.00
71573;BME280;59408;51.032;9.410;2023-04-09T03:12:15;99896.97;;;3.85;100.00
71573;BME280;59408;51.032;9.410;2023-04-09T03:14:42;99897.78;;;3.85;100.00
71573;BME280;59408;51.032;9.410;2023-04-09T03:17:09;99894.00;;;3.86;100.00
71573;BME280;59408;51.032;9.410;2023-04-09T03:19:35;99895.63;;;3.87;100.00
71573;BME280;59408;51.032;9.410;2023-04-09T03:22:02;99899.97;;;3.88;100.00
71573;BME280;59408;51.032;9.410;2023-04-09T03:24:30;99901.81;;;3.93;100.00
71573;BME280;59408;51.032;9.410;2023-04-09T03:26:58;99892.09;;;3.92;100.00
71573;BME280;59408;51.032;9.410;2023-04-09T03:29:25;99903.72;;;3.93;100.00
71573;BME280;59408;51.032;9.410;2023-04-09T03:31:52;99899.41;;;3.92;100.00
71573;BME280;59408;51.032;9.410;2023-04-09T03:34:18;99897.00;;;3.90;100.00
71573;BME280;59408;51.032;9.410;2023-04-09T03:36:45;99892.41;;;3.91;100.00
71573;BME280;59408;51.032;9.410;2023-04-09T03:39:11;99887.28;;;3.89;100.00
71573;BME280;59408;51.032;9.410;2023-04-09T03:41:38;99886.19;;;3.90;100.00
71573;BME280;59408;51.032;9.410;2023-04-09T03:44:06;99885.66;;;3.88;100.00
71573;BME280;59408;51.032;9.410;2023-04-09T03:46:32;99879.72;;;3.86;100.00
71573;BME280;59408;51.032;9.410;2023-04-09T03:48:59;99881.59;;;3.85;100.00
71573;BME280;59408;51.032;9.410;2023-04-09T03:51:26;99885.66;;;3.83;100.00
71573;BME280;59408;51.032;9.410;2023-04-09T03:53:52;99886.22;;;3.80;100.00
71573;BME280;59408;51.032;9.410;2023-04-09T03:56:19;99892.69;;;3.79;100.00
71573;BME280;59408;51.032;9.410;2023-04-09T03:58:46;99881.34;;;3.77;100.00
71573;BME280;59408;51.032;9.410;2023-04-09T04:01:14;99888.63;;;3.76;100.00
71573;BME280;59408;51.032;9.410;2023-04-09T04:03:40;99894.31;;;3.75;100.00
71573;BME280;59408;51.032;9.410;2023-04-09T04:06:07;99887.00;;;3.75;100.00
71573;BME280;59408;51.032;9.410;2023-04-09T04:08:34;99894.03;;;3.76;100.00
71573;BME280;59408;51.032;9.410;2023-04-09T04:11:02;99890.53;;;3.76;100.00
71573;BME280;59408;51.032;9.410;2023-04-09T04:13:29;99886.19;;;3.75;100.00
71573;BME280;59408;51.032;9.410;2023-04-09T04:15:56;99890.78;;;3.74;100.00
71573;BME280;59408;51.032;9.410;2023-04-09T04:18:25;99889.75;;;3.70;100.00
71573;BME280;59408;51.032;9.410;2023-04-09T04:20:52;99889.75;;;3.70;100.00
71573;BME280;59408;51.032;9.410;2023-04-09T04:23:18;99892.44;;;3.70;100.00
71573;BME280;59408;51.032;9.410;2023-04-09T04:25:45;99892.44;;;3.70;100.00
71573;BME280;59408;51.032;9.410;2023-04-09T04:28:12;99894.31;;;3.70;100.00
71573;BME280;59408;51.032;9.410;2023-04-09T04:30:40;99888.13;;;3.69;100.00
71573;BME280;59408;51.032;9.410;2023-04-09T04:33:07;99906.19;;;3.69;100.00
71573;BME280;59408;51.032;9.410;2023-04-09T04:35:35;99894.84;;;3.67;100.00
71573;BME280;59408;51.032;9.410;2023-04-09T04:38:02;99901.59;;;3.69;100.00
71573;BME280;59408;51.032;9.410;2023-04-09T04:40:28;99899.44;;;3.71;100.00
71573;BME280;59408;51.032;9.410;2023-04-09T04:42:55;99900.78;;;3.74;100.00
71573;BME280;59408;51.032;9.410;2023-04-09T04:45:22;99895.91;;;3.76;100.00
71573;BME280;59408;51.032;9.410;2023-04-09T04:47:48;99900.25;;;3.77;100.00
71573;BME280;59408;51.032;9.410;2023-04-09T04:50:15;99900.78;;;3.79;100.00
71573;BME280;59408;51.032;9.410;2023-04-09T04:52:43;99908.59;;;3.80;100.00
71573;BME280;59408;51.032;9.410;2023-04-09T04:55:10;99911.84;;;3.82;100.00
71573;BME280;59408;51.032;9.410;2023-04-09T04:57:36;99909.94;;;3.83;100.00
71573;BME280;59408;51.032;9.410;2023-04-09T05:00:04;99906.16;;;3.84;100.00
71573;BME280;59408;51.032;9.410;2023-04-09T05:02:30;99907.50;;;3.86;100.00
71573;BME280;59408;51.032;9.410;2023-04-09T05:04:57;99914.53;;;3.87;100.00
71573;BME280;59408;51.032;9.410;2023-04-09T05:07:23;99916.97;;;3.89;100.00
71573;BME280;59408;51.032;9.410;2023-04-09T05:09:51;99910.22;;;3.92;100.00
71573;BME280;59408;51.032;9.410;2023-04-09T05:12:18;99914.78;;;3.96;100.00
71573;BME280;59408;51.032;9.410;2023-04-09T05:14:45;99916.41;;;3.97;100.00
71573;BME280;59408;51.032;9.410;2023-04-09T05:17:11;99923.16;;;4.00;100.00
71573;BME280;59408;51.032;9.410;2023-04-09T05:19:38;99920.97;;;4.02;100.00
71573;BME280;59408;51.032;9.410;2023-04-09T05:22:04;99918.00;;;4.03;100.00
71573;BME280;59408;51.032;9.410;2023-04-09T05:24:31;99918.00;;;4.03;100.00
71573;BME280;59408;51.032;9.410;2023-04-09T05:26:59;99920.69;;;4.08;100.00
71573;BME280;59408;51.032;9.410;2023-04-09T05:29:25;99921.19;;;4.10;100.00
71573;BME280;59408;51.032;9.410;2023-04-09T05:31:52;99930.38;;;4.14;100.00
71573;BME280;59408;51.032;9.410;2023-04-09T05:34:19;99920.13;;;4.16;100.00
71573;BME280;59408;51.032;9.410;2023-04-09T05:36:45;99924.69;;;4.21;100.00
71573;BME280;59408;51.032;9.410;2023-04-09T05:39:12;99933.06;;;4.24;100.00
71573;BME280;59408;51.032;9.410;2023-04-09T05:41:38;99936.81;;;4.28;100.00
71573;BME280;59408;51.032;9.410;2023-04-09T05:44:06;99932.75;;;4.31;100.00
71573;BME280;59408;51.032;9.410;2023-04-09T05:46:33;99931.94;;;4.36;100.00
71573;BME280;59408;51.032;9.410;2023-04-09T05:48:59;99938.66;;;4.38;100.00
71573;BME280;59408;51.032;9.410;2023-04-09T05:51:26;99933.53;;;4.42;100.00
71573;BME280;59408;51.032;9.410;2023-04-09T05:53:53;99940.03;;;4.46;100.00
71573;BME280;59408;51.032;9.410;2023-04-09T05:56:19;99935.66;;;4.50;100.00
71573;BME280;59408;51.032;9.410;2023-04-09T05:58:46;99927.00;;;4.53;100.00
71573;BME280;59408;51.032;9.410;2023-04-09T06:01:14;99939.41;;;4.59;100.00
71573;BME280;59408;51.032;9.410;2023-04-09T06:03:40;99934.00;;;4.64;100.00
71573;BME280;59408;51.032;9.410;2023-04-09T06:06:07;99933.97;;;4.69;100.00
71573;BME280;59408;51.032;9.410;2023-04-09T06:08:34;99929.63;;;4.73;100.00
71573;BME280;59408;51.032;9.410;2023-04-09T06:11:00;99942.00;;;4.79;100.00
71573;BME280;59408;51.032;9.410;2023-04-09T06:13:27;99931.97;;;4.85;100.00
71573;BME280;59408;51.032;9.410;2023-04-09T06:15:54;99930.09;;;4.90;100.00
71573;BME280;59408;51.032;9.410;2023-04-09T06:18:22;99940.31;;;4.98;100.00
71573;BME280;59408;51.032;9.410;2023-04-09T06:20:48;99932.97;;;5.04;99.99
71573;BME280;59408;51.032;9.410;2023-04-09T06:23:15;99943.19;;;5.12;99.70
71573;BME280;59408;51.032;9.410;2023-04-09T06:25:41;99938.56;;;5.18;99.86
71573;BME280;59408;51.032;9.410;2023-04-09T06:28:08;99930.66;;;5.26;99.61
71573;BME280;59408;51.032;9.410;2023-04-09T06:30:35;99930.63;;;5.31;99.57
71573;BME280;59408;51.032;9.410;2023-04-09T06:33:01;99936.81;;;5.37;98.75
71573;BME280;59408;51.032;9.410;2023-04-09T06:35:29;99931.06;;;5.44;98.91
71573;BME280;59408;51.032;9.410;2023-04-09T06:37:56;99938.06;;;5.50;98.98
71573;BME280;59408;51.032;9.410;2023-04-09T06:40:23;99942.03;;;5.57;98.67
71573;BME280;59408;51.032;9.410;2023-04-09T06:42:49;99944.72;;;5.62;97.66
71573;BME280;59408;51.032;9.410;2023-04-09T06:45:16;99942.25;;;5.66;98.08
71573;BME280;59408;51.032;9.410;2023-04-09T06:47:43;99942.50;;;5.69;98.00
71573;BME280;59408;51.032;9.410;2023-04-09T06:50:09;99946.75;;;5.75;98.14
71573;BME280;59408;51.032;9.410;2023-04-09T06:52:37;99941.06;;;5.77;98.54
71573;BME280;59408;51.032;9.410;2023-04-09T06:55:05;99944.25;;;5.84;98.04
71573;BME280;59408;51.032;9.410;2023-04-09T06:57:31;99942.31;;;5.90;98.20
71573;BME280;59408;51.032;9.410;2023-04-09T06:59:58;99935.47;;;5.97;97.70
71573;BME280;59408;51.032;9.410;2023-04-09T07:02:25;99939.69;;;6.08;97.02
71573;BME280;59408;51.032;9.410;2023-04-09T07:04:52;99941.25;;;6.14;95.66
71573;BME280;59408;51.032;9.410;2023-04-09T07:07:18;99947.94;;;6.22;96.46
71573;BME280;59408;51.032;9.410;2023-04-09T07:09:47;99941.59;;;6.32;96.15
71573;BME280;59408;51.032;9.410;2023-04-09T07:12:13;99941.47;;;6.42;95.51
71573;BME280;59408;51.032;9.410;2023-04-09T07:14:40;99947.34;;;6.49;95.26
71573;BME280;59408;51.032;9.410;2023-04-09T07:17:07;99946.22;;;6.55;95.16
71573;BME280;59408;51.032;9.410;2023-04-09T07:19:33;99942.03;;;6.63;93.67
71573;BME280;59408;51.032;9.410;2023-04-09T07:22:00;99948.72;;;6.70;93.07
71573;BME280;59408;51.032;9.410;2023-04-09T07:24:26;99948.34;;;6.77;92.64
71573;BME280;59408;51.032;9.410;2023-04-09T07:26:55;99951.31;;;6.80;92.90
71573;BME280;59408;51.032;9.410;2023-04-09T07:29:21;99949.84;;;6.88;93.06
71573;BME280;59408;51.032;9.410;2023-04-09T07:31:48;99951.31;;;6.99;93.03
71573;BME280;59408;51.032;9.410;2023-04-09T07:34:15;99947.94;;;7.07;91.54
71573;BME280;59408;51.032;9.410;2023-04-09T07:36:41;99939.44;;;7.14;91.24
71573;BME280;59408;51.032;9.410;2023-04-09T07:39:08;99942.53;;;7.26;90.32
71573;BME280;59408;51.032;9.410;2023-04-09T07:41:35;99944.59;;;7.34;89.50
71573;BME280;59408;51.032;9.410;2023-04-09T07:44:03;99952.94;;;7.38;88.67
71573;BME280;59408;51.032;9.410;2023-04-09T07:46:30;99945.72;;;7.47;88.94
71573;BME280;59408;51.032;9.410;2023-04-09T07:48:56;99951.66;;;7.68;88.38
71573;BME280;59408;51.032;9.410;2023-04-09T07:51:23;99951.34;;;7.69;88.21
71573;BME280;59408;51.032;9.410;2023-04-09T07:53:50;99944.66;;;7.80;85.78
71573;BME280;59408;51.032;9.410;2023-04-09T07:56:17;99944.47;;;7.90;85.52
71573;BME280;59408;51.032;9.410;2023-04-09T07:58:43;99951.53;;;7.91;84.95
71573;BME280;59408;51.032;9.410;2023-04-09T08:01:12;99950.22;;;7.89;84.47
71573;BME280;59408;51.032;9.410;2023-04-09T08:03:38;99952.88;;;8.08;85.57
71573;BME280;59408;51.032;9.410;2023-04-09T08:06:05;99951.69;;;8.27;84.15
71573;BME280;59408;51.032;9.410;2023-04-09T08:08:32;99956.22;;;8.46;84.16
71573;BME280;59408;51.032;9.410;2023-04-09T08:10:58;99959.81;;;8.68;83.48
71573;BME280;59408;51.032;9.410;2023-04-09T08:13:25;99956.69;;;8.75;80.95
71573;BME280;59408;51.032;9.410;2023-04-09T08:15:52;99960.81;;;8.86;79.98
71573;BME280;59408;51.032;9.410;2023-04-09T08:18:20;99965.81;;;9.06;80.13
71573;BME280;59408;51.032;9.410;2023-04-09T08:20:46;99952.41;;;9.10;77.63
71573;BME280;59408;51.032;9.410;2023-04-09T08:23:13;99962.53;;;9.32;78.28
71573;BME280;59408;51.032;9.410;2023-04-09T08:25:39;99960.13;;;9.30;76.67
71573;BME280;59408;51.032;9.410;2023-04-09T08:28:06;99965.25;;;9.45;77.44
71573;BME280;59408;51.032;9.410;2023-04-09T08:30:33;99956.50;;;9.79;75.88
71573;BME280;59408;51.032;9.410;2023-04-09T08:33:00;99965.09;;;9.95;73.81
71573;BME280;59408;51.032;9.410;2023-04-09T08:35:28;99965.41;;;9.94;74.24
71573;BME280;59408;51.032;9.410;2023-04-09T08:37:56;99963.72;;;10.06;74.69
71573;BME280;59408;51.032;9.410;2023-04-09T08:40:22;99977.00;;;10.39;72.08
71573;BME280;59408;51.032;9.410;2023-04-09T08:42:53;99969.66;;;10.79;72.87
71573;BME280;59408;51.032;9.410;2023-04-09T08:45:20;99967.28;;;11.03;70.93
71573;BME280;59408;51.032;9.410;2023-04-09T08:47:47;99974.03;;;11.06;70.91
71573;BME280;59408;51.032;9.410;2023-04-09T08:50:15;99976.28;;;11.04;70.88
71573;BME280;59408;51.032;9.410;2023-04-09T08:52:44;99975.84;;;11.10;68.83
71573;BME280;59408;51.032;9.410;2023-04-09T08:55:11;99971.31;;;11.06;68.57
71573;BME280;59408;51.032;9.410;2023-04-09T08:57:38;99976.28;;;11.12;67.66
71573;BME280;59408;51.032;9.410;2023-04-09T09:00:06;99982.38;;;10.92;69.29
71573;BME280;59408;51.032;9.410;2023-04-09T09:02:33;99980.31;;;11.06;68.75
71573;BME280;59408;51.032;9.410;2023-04-09T09:05:00;99972.94;;;11.15;67.91
71573;BME280;59408;51.032;9.410;2023-04-09T09:07:27;99970.34;;;11.02;69.00
71573;BME280;59408;51.032;9.410;2023-04-09T09:09:57;99974.38;;;11.38;68.80
71573;BME280;59408;51.032;9.410;2023-04-09T09:12:31;99980.97;;;11.20;68.18
71573;BME280;59408;51.032;9.410;2023-04-09T09:14:58;99975.03;;;11.27;67.51
71573;BME280;59408;51.032;9.410;2023-04-09T09:17:25;99974.88;;;11.41;67.13
71573;BME280;59408;51.032;9.410;2023-04-09T09:19:52;99969.28;;;10.72;67.91
71573;BME280;59408;51.032;9.410;2023-04-09T09:22:19;99975.03;;;11.27;67.02
71573;BME280;59408;51.032;9.410;2023-04-09T09:24:46;99970.53;;;11.57;64.89
71573;BME280;59408;51.032;9.410;2023-04-09T09:27:33;99968.94;;;11.64;65.67
71573;BME280;59408;51.032;9.410;2023-04-09T09:30:01;99961.66;;;11.86;65.91
71573;BME280;59408;51.032;9.410;2023-04-09T09:32:27;99970.16;;;12.19;66.18
71573;BME280;59408;51.032;9.410;2023-04-09T09:35:00;99961.81;;;11.89;63.97
71573;BME280;59408;51.032;9.410;2023-04-09T09:37:28;99962.66;;;12.45;65.36
71573;BME280;59408;51.032;9.410;2023-04-09T09:39:55;99960.53;;;12.51;63.78
71573;BME280;59408;51.032;9.410;2023-04-09T09:42:22;99964.44;;;12.32;62.25
71573;BME280;59408;51.032;9.410;2023-04-09T09:44:52;99964.75;;;12.39;63.51
71573;BME280;59408;51.032;9.410;2023-04-09T09:47:19;99967.28;;;12.53;63.25
71573;BME280;59408;51.032;9.410;2023-04-09T09:49:47;99964.28;;;12.37;62.58
71573;BME280;59408;51.032;9.410;2023-04-09T09:52:15;99964.78;;;12.98;63.40
71573;BME280;59408;51.032;9.410;2023-04-09T09:54:42;99967.41;;;13.15;61.02
71573;BME280;59408;51.032;9.410;2023-04-09T09:57:12;99972.72;;;13.41;61.15
71573;BME280;59408;51.032;9.410;2023-04-09T09:59:46;99967.56;;;13.60;57.86
71573;BME280;59408;51.032;9.410;2023-04-09T10:02:19;99966.41;;;13.62;56.22
71573;BME280;59408;51.032;9.410;2023-04-09T10:04:48;99960.06;;;13.28;56.12
71573;BME280;59408;51.032;9.410;2023-04-09T10:07:15;99962.69;;;12.74;56.37
71573;BME280;59408;51.032;9.410;2023-04-09T10:09:49;99959.94;;;12.66;58.90
71573;BME280;59408;51.032;9.410;2023-04-09T10:12:17;99957.38;;;12.31;56.27
71573;BME280;59408;51.032;9.410;2023-04-09T10:14:47;99948.91;;;12.54;56.48
71573;BME280;59408;51.032;9.410;2023-04-09T10:17:14;99953.75;;;13.07;57.29
71573;BME280;59408;51.032;9.410;2023-04-09T10:22:30;99950.84;;;13.53;53.67
71573;BME280;59408;51.032;9.410;2023-04-09T10:24:58;99946.72;;;13.80;54.85
71573;BME280;59408;51.032;9.410;2023-04-09T10:27:25;99946.72;;;14.50;54.28
71573;BME280;59408;51.032;9.410;2023-04-09T10:29:51;99947.53;;;14.50;51.59
71573;BME280;59408;51.032;9.410;2023-04-09T10:32:19;99947.56;;;14.99;48.09
71573;BME280;59408;51.032;9.410;2023-04-09T10:34:48;99949.03;;;14.35;50.15
71573;BME280;59408;51.032;9.410;2023-04-09T10:37:20;99949.81;;;14.48;48.88
71573;BME280;59408;51.032;9.410;2023-04-09T10:39:47;99948.25;;;14.71;49.57
71573;BME280;59408;51.032;9.410;2023-04-09T10:42:17;99945.06;;;14.69;51.73
71573;BME280;59408;51.032;9.410;2023-04-09T10:44:44;99952.41;;;14.65;48.76
71573;BME280;59408;51.032;9.410;2023-04-09T10:47:30;99944.47;;;15.40;48.41
71573;BME280;59408;51.032;9.410;2023-04-09T10:50:13;99935.75;;;15.11;48.98
71573;BME280;59408;51.032;9.410;2023-04-09T10:52:40;99942.09;;;15.27;49.54
71573;BME280;59408;51.032;9.410;2023-04-09T10:55:07;99937.22;;;15.20;48.99
71573;BME280;59408;51.032;9.410;2023-04-09T10:57:34;99953.59;;;14.44;50.27
71573;BME280;59408;51.032;9.410;2023-04-09T11:00:01;99945.94;;;14.37;52.53
71573;BME280;59408;51.032;9.410;2023-04-09T11:05:34;99938.31;;;15.31;50.63
71573;BME280;59408;51.032;9.410;2023-04-09T11:08:06;99929.88;;;15.12;50.09
71573;BME280;59408;51.032;9.410;2023-04-09T11:10:33;99938.50;;;15.11;49.25
71573;BME280;59408;51.032;9.410;2023-04-09T11:13:01;99930.75;;;14.76;48.34
71573;BME280;59408;51.032;9.410;2023-04-09T11:15:28;99937.06;;;14.64;52.22
71573;BME280;59408;51.032;9.410;2023-04-09T11:17:55;99932.88;;;15.07;50.08
71573;BME280;59408;51.032;9.410;2023-04-09T11:20:23;99924.66;;;14.95;53.75
71573;BME280;59408;51.032;9.410;2023-04-09T11:22:53;99921.88;;;15.07;48.83
71573;BME280;59408;51.032;9.410;2023-04-09T11:25:20;99923.97;;;14.98;51.41
71573;BME280;59408;51.032;9.410;2023-04-09T11:27:48;99929.72;;;14.81;52.60
71573;BME280;59408;51.032;9.410;2023-04-09T11:30:15;99926.88;;;14.65;48.82
71573;BME280;59408;51.032;9.410;2023-04-09T11:32:42;99928.56;;;14.45;52.68
71573;BME280;59408;51.032;9.410;2023-04-09T11:35:12;99932.06;;;13.64;48.10
71573;BME280;59408;51.032;9.410;2023-04-09T11:37:39;99932.34;;;13.83;51.60
71573;BME280;59408;51.032;9.410;2023-04-09T11:40:13;99938.22;;;13.40;53.48
71573;BME280;59408;51.032;9.410;2023-04-09T11:42:40;99930.19;;;12.64;57.51
71573;BME280;59408;51.032;9.410;2023-04-09T11:45:08;99929.41;;;12.64;57.08
71573;BME280;59408;51.032;9.410;2023-04-09T11:47:35;99929.41;;;12.64;54.93
71573;BME280;59408;51.032;9.410;2023-04-09T11:50:04;99927.47;;;12.64;54.48
71573;BME280;59408;51.032;9.410;2023-04-09T11:52:31;99922.69;;;12.82;55.61
71573;BME280;59408;51.032;9.410;2023-04-09T11:54:58;99923.28;;;12.29;54.11
71573;BME280;59408;51.032;9.410;2023-04-09T11:57:35;99915.81;;;12.97;54.36
71573;BME280;59408;51.032;9.410;2023-04-09T12:00:05;99919.06;;;13.32;54.38
71573;BME280;59408;51.032;9.410;2023-04-09T12:02:32;99918.00;;;12.82;53.12
71573;BME280;59408;51.032;9.410;2023-04-09T12:05:02;99914.53;;;13.36;54.32
71573;BME280;59408;51.032;9.410;2023-04-09T12:07:31;99916.94;;;13.91;54.03
71573;BME280;59408;51.032;9.410;2023-04-09T12:10:03;99907.44;;;13.88;51.90
71573;BME280;59408;51.032;9.410;2023-04-09T12:12:38;99906.00;;;14.15;53.27
71573;BME280;59408;51.032;9.410;2023-04-09T12:15:10;99906.34;;;14.26;52.32
71573;BME280;59408;51.032;9.410;2023-04-09T12:17:36;99906.00;;;14.15;50.48
71573;BME280;59408;51.032;9.410;2023-04-09T12:20:04;99902.22;;;14.08;50.98
71573;BME280;59408;51.032;9.410;2023-04-09T12:22:30;99898.53;;;14.04;52.10
71573;BME280;59408;51.032;9.410;2023-04-09T12:24:57;99902.56;;;14.30;51.99
71573;BME280;59408;51.032;9.410;2023-04-09T12:27:24;99899.13;;;13.97;52.33
71573;BME280;59408;51.032;9.410;2023-04-09T12:29:52;99898.16;;;13.48;51.26
71573;BME280;59408;51.032;9.410;2023-04-09T12:32:18;99909.44;;;12.84;53.09
71573;BME280;59408;51.032;9.410;2023-04-09T12:34:45;99901.56;;;13.24;54.27
71573;BME280;59408;51.032;9.410;2023-04-09T12:37:12;99899.16;;;13.64;54.51
71573;BME280;59408;51.032;9.410;2023-04-09T12:39:39;99900.19;;;13.39;52.62
71573;BME280;59408;51.032;9.410;2023-04-09T12:42:06;99894.47;;;13.65;53.55
71573;BME280;59408;51.032;9.410;2023-04-09T12:44:33;99883.81;;;14.81;51.74
71573;BME280;59408;51.032;9.410;2023-04-09T12:47:00;99883.09;;;14.96;51.71
71573;BME280;59408;51.032;9.410;2023-04-09T12:49:27;99872.75;;;14.65;51.23
71573;BME280;59408;51.032;9.410;2023-04-09T12:51:54;99885.09;;;14.47;50.00
71573;BME280;59408;51.032;9.410;2023-04-09T12:54:20;99883.63;;;15.14;50.47
71573;BME280;59408;51.032;9.410;2023-04-09T12:56:47;99885.19;;;14.87;48.91
71573;BME280;59408;51.032;9.410;2023-04-09T12:59:14;99878.78;;;14.83;50.34
71573;BME280;59408;51.032;9.410;2023-04-09T13:01:40;99868.16;;;14.57;51.45
71573;BME280;59408;51.032;9.410;2023-04-09T13:04:10;99863.69;;;14.41;50.13
71573;BME280;59408;51.032;9.410;2023-04-09T13:06:37;99875.72;;;14.24;51.35
71573;BME280;59408;51.032;9.410;2023-04-09T13:09:04;99864.69;;;13.87;52.43
71573;BME280;59408;51.032;9.410;2023-04-09T13:11:31;99862.44;;;14.02;53.08